Camp Rogers, Georgia
Current Conditions -  °F | °C
As of 7:13 AM on Monday 20 Oct 2014 (Local Time) from KLSF Reporting Station
Haze Haze  
Wind Chill: 45°   Ceiling: Unl
Heat Index: 45°   Visibility: 1mi
Dew Point: 45°   Wind: 3mph
Humidity: 100%   Direction: 340°NNW
Pressure: 30.1"   Gusts: NA
Location:  32.373°N, 84.7961°W
Report Text: KLSF 201113Z AUTO 34003KT 1SM R15/2000FT BR CLR 07/07 A3010 RMK AO2 VIS 3/4V1 1/4
Loading
Personal Weather Stations






























Interactive Weather Map
Tropical Storm Tracking
New forecast layout! Learn more

10-Day Weather Forecast

Advertisements
Track Severe Weather on mobile